createdAt,value
2018-11-28T00:00:18.988Z,15
2018-11-28T00:02:18.736Z,16.5
2018-11-28T00:04:19.488Z,14.8
2018-11-28T00:06:19.637Z,10.8
2018-11-28T00:08:19.423Z,15.1
2018-11-28T00:10:18.700Z,16.6
2018-11-28T00:12:19.450Z,16
2018-11-28T00:14:19.220Z,20.8
2018-11-28T00:16:19.023Z,17.4
2018-11-28T00:18:18.846Z,18
2018-11-28T00:20:19.593Z,20.6
2018-11-28T00:22:19.350Z,16.7
2018-11-28T00:24:19.098Z,12.3
2018-11-28T00:26:19.217Z,15.5
2018-11-28T00:28:18.967Z,15.8
2018-11-28T00:30:18.769Z,19.1
2018-11-28T00:32:19.550Z,15.8
2018-11-28T00:34:19.319Z,9.3
2018-11-28T00:36:18.900Z,11
2018-11-28T00:38:19.662Z,17
2018-11-28T00:40:18.969Z,16.1
2018-11-28T00:42:18.730Z,17
2018-11-28T00:44:19.480Z,12.6
2018-11-28T00:46:18.686Z,17.2
2018-11-28T00:48:19.448Z,14
2018-11-28T00:50:19.215Z,12.4
2018-11-28T00:52:18.987Z,13.1
2018-11-28T00:54:18.747Z,11.1
2018-11-28T00:56:19.244Z,10.4
2018-11-28T00:58:19.010Z,10
2018-11-28T01:00:18.771Z,23.1
2018-11-28T01:02:19.504Z,14.1
2018-11-28T01:04:19.258Z,9.4
2018-11-28T01:06:18.757Z,12.5
2018-11-28T01:08:19.521Z,11.2
2018-11-28T01:10:18.771Z,8.9
2018-11-28T01:12:19.517Z,15.4
2018-11-28T01:14:19.282Z,9.1
2018-11-28T01:16:19.535Z,11.8
2018-11-28T01:18:19.399Z,10.2
2018-11-28T01:20:19.206Z,11.5
2018-11-28T01:22:18.970Z,14.2
2018-11-28T01:24:18.723Z,13.7
2018-11-28T01:26:19.512Z,6.5
2018-11-28T01:28:19.296Z,12.6
2018-11-28T01:30:19.098Z,9
2018-11-28T01:32:18.831Z,10.8
2018-11-28T01:34:19.586Z,9.4
2018-11-28T01:36:19.115Z,9.5
2018-11-28T01:38:18.868Z,8.7
2018-11-28T01:40:19.174Z,11
2018-11-28T01:42:19.227Z,6.5
2018-11-28T01:44:19.002Z,7.3
2018-11-28T01:46:19.439Z,7.5
2018-11-28T01:48:19.199Z,6.7
2018-11-28T01:50:18.989Z,12.9
2018-11-28T01:52:18.741Z,5.4
2018-11-28T01:54:19.482Z,6.4
2018-11-28T01:56:19.101Z,13.7
2018-11-28T01:58:18.893Z,7.1
2018-11-28T02:00:19.667Z,7.4
2018-11-28T02:02:18.837Z,6.9
2018-11-28T02:04:19.642Z,4.6
2018-11-28T02:06:18.788Z,9.1
2018-11-28T02:08:19.566Z,8.5
2018-11-28T02:10:18.830Z,8.6
2018-11-28T02:12:19.599Z,12.4
2018-11-28T02:14:19.397Z,9.5
2018-11-28T02:16:19.576Z,7.5
2018-11-28T02:18:19.432Z,7.6
2018-11-28T02:20:19.196Z,4.3
2018-11-28T02:22:18.962Z,6.4
2018-11-28T02:24:18.770Z,7.1
2018-11-28T02:26:19.395Z,6.4
2018-11-28T02:28:19.189Z,5.7
2018-11-28T02:30:19.058Z,6.9
2018-11-28T02:32:18.804Z,7
2018-11-28T02:34:19.599Z,8.2
2018-11-28T02:36:19.400Z,12.4
2018-11-28T02:38:19.177Z,7.3
2018-11-28T02:40:19.504Z,9
2018-11-28T02:42:19.252Z,8.5
2018-11-28T02:44:19.017Z,7.7
2018-11-28T02:46:19.578Z,10.2
2018-11-28T02:48:19.349Z,7.2
2018-11-28T02:50:19.106Z,6.7
2018-11-28T02:52:18.870Z,6.4
2018-11-28T02:54:19.641Z,8.1
2018-11-28T02:56:19.200Z,6.4
2018-11-28T02:58:18.923Z,5.5
2018-11-28T03:00:18.682Z,8.6
2018-11-28T03:02:19.437Z,7
2018-11-28T03:04:19.243Z,6.4
2018-11-28T03:06:18.695Z,9.9
2018-11-28T03:08:19.426Z,5.1
2018-11-28T03:10:18.701Z,11.6
2018-11-28T03:12:19.457Z,11.7
2018-11-28T03:14:19.219Z,6
2018-11-28T03:16:19.316Z,7.7
2018-11-28T03:18:19.158Z,5.7
2018-11-28T03:20:18.944Z,10.7
2018-11-28T03:22:18.682Z,8.4
2018-11-28T03:24:19.420Z,9.9
2018-11-28T03:26:19.683Z,13.5
2018-11-28T03:28:19.423Z,6.1
2018-11-28T03:30:19.216Z,6.2
2018-11-28T03:32:19.257Z,5.9
2018-11-28T03:34:18.992Z,6.2
2018-11-28T03:36:19.526Z,7.2
2018-11-28T03:38:19.275Z,13.5
2018-11-28T03:40:19.692Z,8.4
2018-11-28T03:42:19.441Z,9.1
2018-11-28T03:44:19.165Z,10.2
2018-11-28T03:46:18.747Z,10.8
2018-11-28T03:48:19.533Z,10.3
2018-11-28T03:50:19.269Z,9.1
2018-11-28T03:52:19.034Z,7.6
2018-11-28T03:54:18.790Z,7.5
2018-11-28T03:56:18.901Z,8.1
2018-11-28T03:58:19.669Z,14.5
2018-11-28T04:00:19.456Z,9
2018-11-28T04:02:19.226Z,6.2
2018-11-28T04:04:19.001Z,7.4
2018-11-28T04:06:19.593Z,5
2018-11-28T04:08:19.335Z,8
2018-11-28T04:10:19.593Z,8.5
2018-11-28T04:12:19.357Z,5.5
2018-11-28T04:14:19.110Z,8.3
2018-11-28T04:16:19.687Z,7.1
2018-11-28T04:18:19.550Z,6.7
2018-11-28T04:20:19.296Z,6.5
2018-11-28T04:22:19.047Z,6
2018-11-28T04:24:18.770Z,6.6
2018-11-28T04:26:19.525Z,5.5
2018-11-28T04:28:19.289Z,5.4
2018-11-28T04:30:19.059Z,4.5
2018-11-28T04:32:18.803Z,7.2
2018-11-28T04:34:19.559Z,4.2
2018-11-28T04:36:18.902Z,5.9
2018-11-28T04:38:19.647Z,5.5
2018-11-28T04:40:18.942Z,4.6
2018-11-28T04:42:18.689Z,9.4
2018-11-28T04:44:19.461Z,9.2
2018-11-28T04:46:19.599Z,4.3
2018-11-28T04:48:19.357Z,6.1
2018-11-28T04:50:19.104Z,4.4
2018-11-28T04:52:18.862Z,9.7
2018-11-28T04:54:19.648Z,3.8
2018-11-28T04:56:18.706Z,6.2
2018-11-28T04:58:19.444Z,9.1
2018-11-28T05:00:19.222Z,3.3
2018-11-28T05:02:18.968Z,8
2018-11-28T05:04:18.717Z,3.3
2018-11-28T05:06:19.307Z,5.5
2018-11-28T05:08:19.071Z,4.5
2018-11-28T05:10:19.317Z,6.3
2018-11-28T05:12:19.044Z,5.5
2018-11-28T05:14:18.792Z,5.4
2018-11-28T05:16:19.312Z,3.9
2018-11-28T05:18:19.141Z,4.6
2018-11-28T05:20:18.892Z,5.4
2018-11-28T05:22:19.661Z,7.7
2018-11-28T05:24:19.413Z,8.3
2018-11-28T05:26:19.464Z,9.7
2018-11-28T05:28:19.210Z,4.2
2018-11-28T05:30:18.995Z,4.8
2018-11-28T05:32:18.725Z,4.9
2018-11-28T05:34:19.471Z,3.9
2018-11-28T05:36:19.614Z,2.9
2018-11-28T05:38:19.375Z,8.4
2018-11-28T05:40:19.614Z,5.9
2018-11-28T05:42:19.369Z,3.5
2018-11-28T05:44:19.129Z,7.4
2018-11-28T05:46:19.261Z,5.1
2018-11-28T05:48:19.030Z,4.3
2018-11-28T05:50:18.826Z,5.3
2018-11-28T05:52:19.569Z,7
2018-11-28T05:54:20.542Z,3
2018-11-28T05:56:19.132Z,4.2
2018-11-28T05:58:18.865Z,7.2
2018-11-28T06:00:19.596Z,2.3
2018-11-28T06:02:19.322Z,2.9
2018-11-28T06:04:19.036Z,3
2018-11-28T06:06:19.550Z,3.6
2018-11-28T06:08:19.263Z,10.4
2018-11-28T06:10:19.446Z,7
2018-11-28T06:12:19.165Z,5.3
2018-11-28T06:14:18.887Z,5.1
2018-11-28T06:16:19.439Z,2.9
2018-11-28T06:18:19.226Z,2.4
2018-11-28T06:20:18.974Z,3.8
2018-11-28T06:22:18.682Z,4.6
2018-11-28T06:24:19.391Z,5
2018-11-28T06:26:19.540Z,2.4
2018-11-28T06:28:19.250Z,7
2018-11-28T06:30:18.988Z,4.4
2018-11-28T06:32:18.699Z,2.5
2018-11-28T06:34:19.414Z,2.7
2018-11-28T06:36:19.362Z,3.3
2018-11-28T06:38:19.070Z,7.6
2018-11-28T06:40:24.460Z,4.8
2018-11-28T06:42:19.202Z,5.2
2018-11-28T06:44:18.913Z,5.6
2018-11-28T06:46:19.356Z,3.5
2018-11-28T06:48:19.065Z,5.6
2018-11-28T06:50:18.828Z,4.1
2018-11-28T06:52:19.549Z,3
2018-11-28T06:54:19.264Z,7.5
2018-11-28T06:56:18.770Z,1.8
2018-11-28T06:58:19.493Z,2.7
2018-11-28T07:00:19.238Z,2.6
2018-11-28T07:02:18.705Z,4.1
2018-11-28T07:04:19.411Z,2.5
2018-11-28T07:06:18.910Z,3.1
2018-11-28T07:08:19.608Z,3.5
2018-11-28T07:10:18.831Z,2.8
2018-11-28T07:12:19.566Z,2.1
2018-11-28T07:14:19.286Z,4.6
2018-11-28T07:16:19.254Z,5.1
2018-11-28T07:18:19.051Z,2.7
2018-11-28T07:20:18.783Z,3.8
2018-11-28T07:22:19.400Z,5.4
2018-11-28T07:24:19.144Z,3.2
2018-11-28T07:26:19.103Z,2.3
2018-11-28T07:28:18.842Z,2.5
2018-11-28T07:30:19.599Z,5.8
2018-11-28T07:32:19.317Z,7.9
2018-11-28T07:34:19.017Z,1.9
2018-11-28T07:36:19.319Z,2.2
2018-11-28T07:38:19.027Z,3.9
2018-11-28T07:40:19.195Z,2.2
2018-11-28T07:42:18.706Z,12.2
2018-11-28T07:44:19.476Z,2.4
2018-11-28T07:46:19.519Z,3
2018-11-28T07:48:19.234Z,3.8
2018-11-28T07:50:18.987Z,6.8
2018-11-28T07:52:18.700Z,5.2
2018-11-28T07:54:19.406Z,2.6
2018-11-28T07:56:19.089Z,9.4
2018-11-28T07:58:18.806Z,5.4
2018-11-28T08:00:19.536Z,4.7
2018-11-28T08:02:19.242Z,4.4
2018-11-28T08:04:19.338Z,2.9
2018-11-28T08:06:18.965Z,3.8
2018-11-28T08:08:18.671Z,2.3
2018-11-28T08:10:18.993Z,3.6
2018-11-28T08:12:18.745Z,5.7
2018-11-28T08:14:19.452Z,6.2
2018-11-28T08:16:18.954Z,6.8
2018-11-28T08:18:18.727Z,6.3
2018-11-28T08:20:19.463Z,5.4
2018-11-28T08:22:19.182Z,4.6
2018-11-28T08:24:18.883Z,4.8
2018-11-28T08:26:19.180Z,4.3
2018-11-28T08:28:18.905Z,2.4
2018-11-28T08:30:20.144Z,3.8
2018-11-28T08:32:18.871Z,6.6
2018-11-28T08:34:19.592Z,8.4
2018-11-28T08:36:19.620Z,3.9
2018-11-28T08:38:19.337Z,5
2018-11-28T08:40:19.509Z,5.2
2018-11-28T08:42:19.215Z,5.9
2018-11-28T08:44:18.935Z,4.2
2018-11-28T08:46:19.430Z,2.8
2018-11-28T08:48:19.127Z,3.6
2018-11-28T08:50:18.957Z,4.9
2018-11-28T08:52:18.698Z,10.5
2018-11-28T08:54:19.436Z,4.8
2018-11-28T08:56:19.168Z,7
2018-11-28T08:58:18.877Z,3.6
2018-11-28T09:00:19.618Z,4.8
2018-11-28T09:02:19.337Z,4
2018-11-28T09:04:19.039Z,6.8
2018-11-28T09:06:19.508Z,5.4
2018-11-28T09:08:19.211Z,2.5
2018-11-28T09:10:19.431Z,7.1
2018-11-28T09:12:18.876Z,2.7
2018-11-28T09:14:19.585Z,4.3
2018-11-28T09:16:19.127Z,4.6
2018-11-28T09:18:18.921Z,15.2
2018-11-28T09:20:19.637Z,3
2018-11-28T09:22:19.356Z,4.8
2018-11-28T09:24:19.071Z,5
2018-11-28T09:26:19.620Z,2.7
2018-11-28T09:28:19.342Z,4.1
2018-11-28T09:30:19.091Z,4.1
2018-11-28T09:32:18.704Z,5.8
2018-11-28T09:34:19.427Z,6.9
2018-11-28T09:36:18.965Z,4.8
2018-11-28T09:38:18.684Z,5.1
2018-11-28T09:40:18.862Z,4.5
2018-11-28T09:42:19.583Z,3.6
2018-11-28T09:44:19.282Z,3.8
2018-11-28T09:46:19.370Z,3.4
2018-11-28T09:48:19.098Z,6.4
2018-11-28T09:50:18.834Z,3.5
2018-11-28T09:52:19.552Z,5.6
2018-11-28T09:54:19.281Z,2.8
2018-11-28T09:56:19.446Z,3.9
2018-11-28T09:58:19.160Z,4
2018-11-28T10:00:18.875Z,3.9
2018-11-28T10:02:19.585Z,4.8
2018-11-28T10:04:19.347Z,7.7
2018-11-28T10:06:18.871Z,4.2
2018-11-28T10:08:19.581Z,8.4
2018-11-28T10:10:18.758Z,5.9
2018-11-28T10:12:20.065Z,8.5
2018-11-28T10:14:18.786Z,11.6
2018-11-28T10:16:18.736Z,9.2
2018-11-28T10:18:19.511Z,3
2018-11-28T10:20:19.234Z,7.4
2018-11-28T10:22:18.943Z,7.8
2018-11-28T10:24:18.644Z,3.4
2018-11-28T10:26:18.692Z,7.4
2018-11-28T10:28:19.431Z,5.9
2018-11-28T10:30:19.149Z,6.5
2018-11-28T10:32:18.857Z,10.8
2018-11-28T10:34:19.580Z,8.8
2018-11-28T10:36:19.081Z,6.8
2018-11-28T10:38:18.814Z,5.2
2018-11-28T10:40:18.994Z,8.6
2018-11-28T10:42:18.701Z,7.2
2018-11-28T10:44:19.412Z,3.3
2018-11-28T10:46:18.842Z,7.3
2018-11-28T10:48:19.554Z,4
2018-11-28T10:50:19.282Z,6.2
2018-11-28T10:52:18.985Z,12.6
2018-11-28T10:54:18.711Z,10.6
2018-11-28T10:56:19.278Z,3.5
2018-11-28T10:58:19.006Z,5.8
2018-11-28T11:00:18.791Z,5.9
2018-11-28T11:02:19.501Z,6.2
2018-11-28T11:04:19.207Z,4
2018-11-28T11:06:18.667Z,6.5
2018-11-28T11:08:19.367Z,9.4
2018-11-28T11:10:19.542Z,3.3
2018-11-28T11:12:19.271Z,5.4
2018-11-28T11:14:18.990Z,6.7
2018-11-28T11:16:19.396Z,9.7
2018-11-28T11:18:19.178Z,4.7
2018-11-28T11:20:18.933Z,5.4
2018-11-28T11:22:19.653Z,6.4
2018-11-28T11:24:19.362Z,6
2018-11-28T11:26:19.335Z,6.4
2018-11-28T11:28:19.057Z,8.9
2018-11-28T11:30:18.797Z,4.5
2018-11-28T11:32:19.514Z,3.3
2018-11-28T11:34:19.290Z,6
2018-11-28T11:36:18.831Z,4.3
2018-11-28T11:38:19.531Z,8.4
2018-11-28T11:40:18.807Z,8.1
2018-11-28T11:42:19.579Z,7.5
2018-11-28T11:44:19.296Z,10
2018-11-28T11:46:18.745Z,6.7
2018-11-28T11:48:19.456Z,14
2018-11-28T11:50:19.259Z,4.6
2018-11-28T11:52:18.975Z,4.7
2018-11-28T11:54:18.685Z,3.9
2018-11-28T11:56:19.149Z,5.6
2018-11-28T11:58:18.867Z,4.8
2018-11-28T12:00:19.583Z,5.6
2018-11-28T12:02:19.299Z,4.1
2018-11-28T12:04:19.018Z,5.5
2018-11-28T12:06:18.965Z,5.2
2018-11-28T12:08:18.694Z,7
2018-11-28T12:10:18.884Z,4.4
2018-11-28T12:12:19.606Z,4.6
2018-11-28T12:14:19.323Z,6.4
2018-11-28T12:16:21.867Z,3
2018-11-28T12:18:18.657Z,9.8
2018-11-28T12:20:19.388Z,5.6
2018-11-28T12:22:19.098Z,4.7
2018-11-28T12:24:18.798Z,3.2
2018-11-28T12:26:18.786Z,4
2018-11-28T12:28:19.511Z,4.7
2018-11-28T12:30:19.252Z,4.8
2018-11-28T12:32:19.006Z,7
2018-11-28T12:34:18.733Z,4.9
2018-11-28T12:36:19.502Z,4.7
2018-11-28T12:38:19.218Z,5
2018-11-28T12:40:19.387Z,3.3
2018-11-28T12:42:19.103Z,7.2
2018-11-28T12:44:18.827Z,4
2018-11-28T12:46:18.800Z,7.4
2018-11-28T12:48:19.506Z,3.4
2018-11-28T12:50:19.237Z,6.9
2018-11-28T12:52:18.944Z,4.5
2018-11-28T12:54:18.660Z,5.6
2018-11-28T12:56:19.124Z,3.7
2018-11-28T12:58:18.841Z,4
2018-11-28T13:00:19.569Z,4.1
2018-11-28T13:02:19.305Z,10.9
2018-11-28T13:04:19.023Z,4.5
2018-11-28T13:06:19.630Z,4.1
2018-11-28T13:08:19.344Z,4.7
2018-11-28T13:10:19.606Z,5.5
2018-11-28T13:12:19.315Z,4.3
2018-11-28T13:14:19.038Z,7
2018-11-28T13:16:19.174Z,2.9
2018-11-28T13:18:18.963Z,4.4
2018-11-28T13:20:18.719Z,8.1
2018-11-28T13:22:19.446Z,6
2018-11-28T13:24:19.174Z,6.3
2018-11-28T13:26:18.754Z,7.2
2018-11-28T13:28:19.477Z,2.5
2018-11-28T13:30:19.222Z,4.3
2018-11-28T13:32:18.952Z,7.7
2018-11-28T13:34:18.680Z,5
2018-11-28T13:36:23.043Z,4.3
2018-11-28T13:40:19.050Z,6.1
2018-11-28T13:42:18.786Z,5.7
2018-11-28T13:44:19.499Z,2.9
2018-11-28T13:46:19.468Z,4.9
2018-11-28T13:48:19.185Z,4.8
2018-11-28T13:50:18.916Z,5.5
2018-11-28T13:52:19.626Z,4.6
2018-11-28T13:54:22.093Z,4.2
2018-11-28T13:57:05.846Z,3.6
2018-11-28T13:58:19.223Z,5.8
2018-11-28T14:00:18.970Z,3.4
2018-11-28T14:02:18.689Z,2.5
2018-11-28T14:04:19.421Z,3.2
2018-11-28T14:06:18.880Z,1.7
2018-11-28T14:08:19.603Z,15
2018-11-28T14:10:18.776Z,3.5
2018-11-28T14:12:19.520Z,4.2
2018-11-28T14:14:19.235Z,6.3
2018-11-28T14:16:19.375Z,2.5
2018-11-28T14:18:19.184Z,1.9
2018-11-28T14:20:18.926Z,4.6
2018-11-28T14:22:19.637Z,2.8
2018-11-28T14:24:19.363Z,3.4
2018-11-28T14:26:19.346Z,1.6
2018-11-28T14:28:19.066Z,3.5
2018-11-28T14:30:18.817Z,2.2
2018-11-28T14:32:19.558Z,4.1
2018-11-28T14:34:19.295Z,4.1
2018-11-28T14:36:19.442Z,3.1
2018-11-28T14:38:19.159Z,3
2018-11-28T14:40:19.362Z,3.7
2018-11-28T14:42:19.074Z,1.9
2018-11-28T14:44:18.781Z,1.8
2018-11-28T14:46:19.346Z,4
2018-11-28T14:48:19.075Z,2.7
2018-11-28T14:50:18.819Z,4.6
2018-11-28T14:52:19.535Z,3.2
2018-11-28T14:54:19.255Z,4.9
2018-11-28T14:56:19.128Z,3.7
2018-11-28T14:58:18.842Z,3.3
2018-11-28T15:00:19.561Z,3.8
2018-11-28T15:02:19.327Z,6
2018-11-28T15:04:19.079Z,2.1
2018-11-28T15:06:19.578Z,3.9
2018-11-28T15:08:19.302Z,6.3
2018-11-28T15:10:19.486Z,3.4
2018-11-28T15:12:19.192Z,5
2018-11-28T15:14:18.922Z,5.4
2018-11-28T15:16:18.890Z,5.3
2018-11-28T15:18:18.676Z,3.6
2018-11-28T15:20:19.421Z,6.9
2018-11-28T15:22:19.154Z,7.7
2018-11-28T15:24:18.865Z,8
2018-11-28T15:26:19.311Z,5.5
2018-11-28T15:28:19.038Z,15.1
2018-11-28T15:30:18.793Z,3.6
2018-11-28T15:32:19.525Z,3.7
2018-11-28T15:34:19.230Z,2.5
2018-11-28T15:36:18.796Z,4.3
2018-11-28T15:38:19.533Z,4.1
2018-11-28T15:40:18.890Z,4.5
2018-11-28T15:42:19.614Z,7.6
2018-11-28T15:44:20.150Z,4.1
2018-11-28T15:46:19.191Z,6.5
2018-11-28T15:48:18.906Z,8.1
2018-11-28T15:50:19.687Z,6.5
2018-11-28T15:52:19.401Z,11.3
2018-11-28T15:54:19.155Z,1.9
2018-11-28T15:56:19.234Z,4.1
2018-11-28T15:58:18.965Z,6.2
2018-11-28T16:00:18.700Z,3.7
2018-11-28T16:02:19.423Z,4.5
2018-11-28T16:04:19.150Z,3.7
2018-11-28T16:06:18.771Z,3.2
2018-11-28T16:08:19.479Z,6.2
2018-11-28T16:10:18.696Z,4.1
2018-11-28T16:12:19.447Z,7.2
2018-11-28T16:14:19.152Z,4.6
2018-11-28T16:16:19.110Z,4.8
2018-11-28T16:18:18.886Z,4
2018-11-28T16:20:19.612Z,4.8
2018-11-28T16:22:19.315Z,4.3
2018-11-28T16:24:19.016Z,4.2
2018-11-28T16:26:19.585Z,6.3
2018-11-28T16:28:19.321Z,3.9
2018-11-28T16:30:19.057Z,6.9
2018-11-28T16:32:18.731Z,3.6
2018-11-28T16:34:19.451Z,5.7
2018-11-28T16:36:18.945Z,9.5
2018-11-28T16:38:18.646Z,7.9
2018-11-28T16:40:18.818Z,6.2
2018-11-28T16:42:19.539Z,4.6
2018-11-28T16:44:19.270Z,7.8
2018-11-28T16:46:19.259Z,4.6
2018-11-28T16:48:18.973Z,2.7
2018-11-28T16:50:18.703Z,5.4
2018-11-28T16:52:19.422Z,7.6
2018-11-28T16:54:19.173Z,2.9
2018-11-28T16:56:19.173Z,8.8
2018-11-28T16:58:18.900Z,10
2018-11-28T17:00:19.685Z,7
2018-11-28T17:02:18.717Z,4.3
2018-11-28T17:04:19.437Z,8.2
2018-11-28T17:06:18.858Z,5.3
2018-11-28T17:08:19.571Z,8
2018-11-28T17:10:18.749Z,7.1
2018-11-28T17:12:19.469Z,5.1
2018-11-28T17:14:19.182Z,4.3
2018-11-28T17:16:19.143Z,7.5
2018-11-28T17:18:18.907Z,6
2018-11-28T17:20:19.603Z,6.2
2018-11-28T17:22:19.314Z,5.7
2018-11-28T17:24:19.029Z,8.1
2018-11-28T17:26:19.510Z,4.4
2018-11-28T17:28:19.212Z,5
2018-11-28T17:30:19.493Z,3.8
2018-11-28T17:32:19.212Z,8.8
2018-11-28T17:34:18.920Z,3.5
2018-11-28T17:36:19.261Z,7.7
2018-11-28T17:38:18.961Z,16.3
2018-11-28T17:40:19.139Z,5.8
2018-11-28T17:42:18.911Z,5.6
2018-11-28T17:44:19.610Z,6
2018-11-28T17:46:19.180Z,9.1
2018-11-28T17:48:18.910Z,4.1
2018-11-28T17:50:19.650Z,4
2018-11-28T17:52:19.354Z,3.4
2018-11-28T17:54:19.074Z,5.5
2018-11-28T17:56:19.542Z,4.3
2018-11-28T17:58:19.244Z,5.1
2018-11-28T18:00:18.973Z,7.7
2018-11-28T18:02:18.673Z,3.6
2018-11-28T18:04:19.383Z,3.7
2018-11-28T18:06:19.048Z,4.9
2018-11-28T18:08:18.752Z,3.5
2018-11-28T18:10:18.945Z,8.5
2018-11-28T18:12:18.657Z,5.8
2018-11-28T18:14:19.353Z,3.6
2018-11-28T18:16:18.793Z,6.3
2018-11-28T18:18:19.576Z,6.5
2018-11-28T18:20:19.306Z,5.1
2018-11-28T18:22:19.007Z,4.4
2018-11-28T18:24:18.724Z,2.8
2018-11-28T18:26:18.742Z,3.5
2018-11-28T18:28:19.453Z,5.1
2018-11-28T18:30:19.159Z,3.6
2018-11-28T18:32:18.889Z,4.1
2018-11-28T18:34:19.603Z,8.5
2018-11-28T18:36:19.115Z,6.2
2018-11-28T18:38:18.845Z,5.5
2018-11-28T18:40:19.019Z,5
2018-11-28T18:42:18.733Z,9.2
2018-11-28T18:44:19.460Z,6.7
2018-11-28T18:46:19.057Z,6.6
2018-11-28T18:48:18.797Z,5.9
2018-11-28T18:50:19.533Z,5.1
2018-11-28T18:52:19.260Z,3.6
2018-11-28T18:54:18.979Z,7.9
2018-11-28T18:56:19.192Z,3.8
2018-11-28T18:58:18.899Z,6.6
2018-11-28T19:00:19.639Z,7
2018-11-28T19:02:19.355Z,7.5
2018-11-28T19:04:19.071Z,5.2
2018-11-28T19:06:19.465Z,7.5
2018-11-28T19:08:19.171Z,6.2
2018-11-28T19:10:19.357Z,7.2
2018-11-28T19:12:19.069Z,13.2
2018-11-28T19:14:18.777Z,8.1
2018-11-28T19:16:19.437Z,4.2
2018-11-28T19:18:19.208Z,4.3
2018-11-28T19:20:18.938Z,5.2
2018-11-28T19:22:18.644Z,12.5
2018-11-28T19:24:19.351Z,7.5
2018-11-28T19:26:19.314Z,7.3
2018-11-28T19:28:19.019Z,6.9
2018-11-28T19:30:18.790Z,2.5
2018-11-28T19:32:19.498Z,8
2018-11-28T19:34:19.201Z,3.9
2018-11-28T19:36:19.245Z,5.3
2018-11-28T19:38:18.948Z,2.8
2018-11-28T19:40:19.126Z,5.3
2018-11-28T19:42:18.838Z,7.2
2018-11-28T19:44:19.536Z,6.9
2018-11-28T19:46:18.990Z,9
2018-11-28T19:48:18.710Z,3.2
2018-11-28T19:50:19.446Z,4.2
2018-11-28T19:52:19.156Z,3.3
2018-11-28T19:54:18.861Z,5.3
2018-11-28T19:56:19.435Z,7.2
2018-11-28T19:58:19.152Z,6.9
2018-11-28T20:00:18.884Z,7.2
2018-11-28T20:02:19.595Z,6.6
2018-11-28T20:04:19.307Z,4.1
2018-11-28T20:06:19.447Z,8.2
2018-11-28T20:08:19.167Z,3.7
2018-11-28T20:10:19.377Z,9.7
2018-11-28T20:12:19.089Z,4
2018-11-28T20:14:18.796Z,8.5
2018-11-28T20:16:19.411Z,8.3
2018-11-28T20:18:19.192Z,7.6
2018-11-28T20:20:18.907Z,9
2018-11-28T20:22:19.631Z,7.2
2018-11-28T20:24:19.348Z,6.5
2018-11-28T20:26:19.362Z,11.9
2018-11-28T20:28:19.069Z,8.2
2018-11-28T20:30:18.812Z,8
2018-11-28T20:32:19.513Z,11.8
2018-11-28T20:34:19.209Z,7
2018-11-28T20:36:18.779Z,10.5
2018-11-28T20:38:19.882Z,4.6
2018-11-28T20:40:19.076Z,4.1
2018-11-28T20:42:18.780Z,5.6
2018-11-28T20:44:19.480Z,6.5
2018-11-28T20:46:19.564Z,8.8
2018-11-28T20:48:19.269Z,7.4
2018-11-28T20:50:18.989Z,10.5
2018-11-28T20:52:18.714Z,13.5
2018-11-28T20:54:19.441Z,9.2
2018-11-28T20:56:19.044Z,10.2
2018-11-28T20:58:18.745Z,8.2
2018-11-28T21:00:19.471Z,6.1
2018-11-28T21:02:19.186Z,10.7
2018-11-28T21:04:18.890Z,9.4
2018-11-28T21:06:19.224Z,8.9
2018-11-28T21:08:18.940Z,19.3
2018-11-28T21:10:19.139Z,13.7
2018-11-28T21:12:18.856Z,10.1
2018-11-28T21:14:19.572Z,9.1
2018-11-28T21:16:19.505Z,10.8
2018-11-28T21:18:19.312Z,9.2
2018-11-28T21:20:19.060Z,11.1
2018-11-28T21:22:18.766Z,14.2
2018-11-28T21:24:19.474Z,12.7
2018-11-28T21:26:19.579Z,12.4
2018-11-28T21:28:19.278Z,11.1
2018-11-28T21:30:19.009Z,10.6
2018-11-28T21:32:18.732Z,10.2
2018-11-28T21:34:19.447Z,11.3
2018-11-28T21:36:19.418Z,12.8
2018-11-28T21:38:19.135Z,17.1
2018-11-28T21:40:19.393Z,11.9
2018-11-28T21:42:18.958Z,13.8
2018-11-28T21:44:18.652Z,11.4
2018-11-28T21:46:19.689Z,12.2
2018-11-28T21:48:19.434Z,22.2
2018-11-28T21:50:19.153Z,10.4
2018-11-28T21:52:18.866Z,16.8
2018-11-28T21:54:19.588Z,11
2018-11-28T21:56:19.608Z,10.4
2018-11-28T21:58:19.309Z,16.3
2018-11-28T22:00:19.050Z,14.4
2018-11-28T22:02:19.090Z,8.4
2018-11-28T22:04:18.793Z,11
2018-11-28T22:06:19.270Z,13
2018-11-28T22:08:18.967Z,8.4
2018-11-28T22:10:19.131Z,19.3
2018-11-28T22:12:18.907Z,12.2
2018-11-28T22:14:19.611Z,16.8
2018-11-28T22:16:18.801Z,20.8
2018-11-28T22:18:19.561Z,13.1
2018-11-28T22:20:19.300Z,17
2018-11-28T22:22:19.058Z,17.9
2018-11-28T22:24:18.751Z,18.8
2018-11-28T22:26:18.731Z,18.8
2018-11-28T22:28:19.447Z,19.8
2018-11-28T22:30:19.179Z,19.7
2018-11-28T22:32:18.893Z,12.6
2018-11-28T22:34:19.599Z,12.6
2018-11-28T22:36:18.827Z,19.8
2018-11-28T22:38:19.524Z,18.8
2018-11-28T22:40:18.721Z,12.6
2018-11-28T22:42:19.415Z,19.5
2018-11-28T22:44:19.138Z,22.2
2018-11-28T22:46:18.967Z,20.5
2018-11-28T22:48:18.680Z,17.8
2018-11-28T22:50:19.400Z,21.8
2018-11-28T22:52:19.112Z,15.8
2018-11-28T22:54:18.830Z,23.8
2018-11-28T22:56:19.378Z,24
2018-11-28T22:58:19.098Z,23
2018-11-28T23:00:18.807Z,30.4
2018-11-28T23:02:19.506Z,12.8
2018-11-28T23:04:19.217Z,21.5
2018-11-28T23:06:18.660Z,18.6
2018-11-28T23:08:19.372Z,14
2018-11-28T23:10:19.560Z,21.6
2018-11-28T23:12:19.255Z,20.2
2018-11-28T23:14:18.947Z,29.9
2018-11-28T23:16:18.908Z,35.7
2018-11-28T23:18:18.699Z,18.6
2018-11-28T23:20:19.435Z,19.9
2018-11-28T23:22:19.158Z,23.5
2018-11-28T23:24:18.859Z,24.2
2018-11-28T23:26:19.290Z,27.1
2018-11-28T23:28:18.988Z,17.1
2018-11-28T23:30:18.691Z,26
2018-11-28T23:32:19.402Z,26.1
2018-11-28T23:34:19.127Z,24.6
2018-11-28T23:36:19.099Z,29.5
2018-11-28T23:38:18.790Z,24.1
2018-11-28T23:40:18.973Z,27.3
2018-11-28T23:42:19.577Z,31.8
2018-11-28T23:44:19.268Z,23.9
2018-11-28T23:46:18.696Z,24.6
2018-11-28T23:48:19.418Z,39.8
2018-11-28T23:50:19.187Z,27
2018-11-28T23:52:18.883Z,25.7
2018-11-28T23:54:19.574Z,19.7
2018-11-28T23:56:19.599Z,22.3
2018-11-28T23:58:19.290Z,30.2
